createdAt,value
2022-09-22T00:01:36.084Z,35.21
2022-09-22T00:04:07.203Z,35.04
2022-09-22T00:06:38.834Z,35.07
2022-09-22T00:09:09.275Z,35.26
2022-09-22T00:11:40.060Z,35.03
2022-09-22T00:14:10.789Z,35.16
2022-09-22T00:16:43.136Z,35.18
2022-09-22T00:19:14.202Z,35.11
2022-09-22T00:21:42.323Z,35.39
2022-09-22T00:24:10.533Z,35.01
2022-09-22T00:26:39.463Z,35.15
2022-09-22T00:29:09.350Z,35.14
2022-09-22T00:31:38.910Z,34.90
2022-09-22T00:34:09.295Z,35.11
2022-09-22T00:36:37.186Z,35.10
2022-09-22T00:39:05.485Z,34.87
2022-09-22T00:41:37.190Z,34.83
2022-09-22T00:44:37.103Z,34.96
2022-09-22T00:47:16.209Z,34.79
2022-09-22T00:49:50.812Z,34.71
2022-09-22T00:52:24.041Z,34.98
2022-09-22T00:54:54.194Z,34.92
2022-09-22T00:57:26.809Z,34.98
2022-09-22T00:59:55.489Z,34.88
2022-09-22T01:02:23.424Z,34.75
2022-09-22T01:04:53.613Z,34.80
2022-09-22T01:07:25.144Z,34.84
2022-09-22T01:09:53.533Z,34.68
2022-09-22T01:12:21.546Z,34.94
2022-09-22T01:15:02.596Z,34.77
2022-09-22T01:17:37.325Z,34.80
2022-09-22T01:20:31.011Z,34.63
2022-09-22T01:23:28.808Z,34.85
2022-09-22T01:26:33.348Z,34.85
2022-09-22T01:29:36.075Z,34.61
2022-09-22T01:32:16.779Z,34.89
2022-09-22T01:34:49.788Z,34.71
2022-09-22T01:37:25.324Z,34.71
2022-09-22T01:39:58.982Z,34.69
2022-09-22T01:42:33.801Z,35.12
2022-09-22T01:45:05.879Z,34.67
2022-09-22T01:47:40.601Z,34.94
2022-09-22T01:50:16.108Z,34.70
2022-09-22T01:52:45.312Z,35.07
2022-09-22T01:55:17.795Z,34.86
2022-09-22T01:57:52.537Z,34.78
2022-09-22T02:00:23.186Z,34.77
2022-09-22T02:02:59.668Z,34.80
2022-09-22T02:05:33.723Z,35.05
2022-09-22T02:08:08.332Z,34.98
2022-09-22T02:10:41.708Z,34.85
2022-09-22T02:13:09.718Z,34.87
2022-09-22T02:16:00.534Z,34.72
2022-09-22T02:18:35.146Z,34.83
2022-09-22T02:21:04.496Z,34.63
2022-09-22T02:23:33.264Z,34.67
2022-09-22T02:26:03.063Z,34.62
2022-09-22T02:28:32.780Z,34.63
2022-09-22T02:31:19.620Z,34.70
2022-09-22T02:33:51.887Z,34.73
2022-09-22T02:36:39.885Z,34.46
2022-09-22T02:39:12.489Z,34.61
2022-09-22T02:41:54.696Z,34.65
2022-09-22T02:44:27.004Z,34.47
2022-09-22T02:47:01.204Z,34.76
2022-09-22T02:49:31.413Z,34.52
2022-09-22T02:52:00.029Z,34.50
2022-09-22T02:54:28.042Z,34.51
2022-09-22T02:56:56.093Z,34.45
2022-09-22T02:59:24.053Z,34.40
2022-09-22T03:01:52.029Z,34.20
2022-09-22T03:04:19.935Z,34.38
2022-09-22T03:06:49.190Z,34.29
2022-09-22T03:09:18.132Z,34.43
2022-09-22T03:11:46.542Z,34.48
2022-09-22T03:14:14.513Z,34.55
2022-09-22T03:16:42.376Z,34.23
2022-09-22T03:19:10.340Z,34.20
2022-09-22T03:21:38.200Z,34.26
2022-09-22T03:24:07.667Z,34.22
2022-09-22T03:26:35.922Z,34.46
2022-09-22T03:29:03.847Z,34.27
2022-09-22T03:31:31.683Z,34.25
2022-09-22T03:33:59.727Z,34.48
2022-09-22T03:36:27.616Z,34.33
2022-09-22T03:38:55.745Z,34.37
2022-09-22T03:41:24.996Z,34.45
2022-09-22T03:43:53.568Z,34.34
2022-09-22T03:46:21.627Z,34.26
2022-09-22T03:48:49.561Z,34.36
2022-09-22T03:51:17.571Z,34.14
2022-09-22T03:53:46.205Z,34.42
2022-09-22T03:56:16.276Z,34.23
2022-09-22T03:58:45.750Z,34.19
2022-09-22T04:01:13.912Z,34.30
2022-09-22T04:03:41.951Z,34.17
2022-09-22T04:06:09.851Z,34.10
2022-09-22T04:08:37.777Z,34.08
2022-09-22T04:11:06.898Z,34.33
2022-09-22T04:13:35.436Z,34.19
2022-09-22T04:16:05.989Z,34.10
2022-09-22T04:18:34.285Z,34.09
2022-09-22T04:21:02.221Z,34.12
2022-09-22T04:23:30.142Z,34.05
2022-09-22T04:25:58.059Z,33.95
2022-09-22T04:28:26.258Z,33.92
2022-09-22T04:30:54.151Z,33.95
2022-09-22T04:33:24.520Z,34.09
2022-09-22T04:35:53.260Z,34.11
2022-09-22T04:38:21.597Z,33.86
2022-09-22T04:40:49.661Z,33.94
2022-09-22T04:43:17.889Z,33.89
2022-09-22T04:45:48.703Z,34.02
2022-09-22T04:48:17.142Z,33.96
2022-09-22T04:50:48.296Z,34.08
2022-09-22T04:53:16.896Z,34.04
2022-09-22T04:55:45.161Z,34.03
2022-09-22T04:58:13.984Z,34.22
2022-09-22T05:00:42.053Z,34.00
2022-09-22T05:03:10.606Z,34.19
2022-09-22T05:05:38.625Z,34.11
2022-09-22T05:08:07.951Z,33.98
2022-09-22T05:10:36.789Z,34.13
2022-09-22T05:13:05.844Z,34.11
2022-09-22T05:15:34.814Z,34.32
2022-09-22T05:18:02.937Z,34.20
2022-09-22T05:20:30.824Z,34.13
2022-09-22T05:22:58.768Z,34.28
2022-09-22T05:25:28.125Z,34.25
2022-09-22T05:27:57.375Z,34.22
2022-09-22T05:30:27.447Z,34.38
2022-09-22T05:32:55.407Z,34.36
2022-09-22T05:35:24.917Z,34.59
2022-09-22T05:37:54.264Z,34.50
2022-09-22T05:40:24.101Z,34.51
2022-09-22T05:42:54.876Z,34.45
2022-09-22T05:45:23.021Z,34.52
2022-09-22T05:47:51.224Z,34.60
2022-09-22T05:50:21.346Z,34.54
2022-09-22T05:52:49.228Z,34.68
2022-09-22T05:55:17.254Z,34.71
2022-09-22T05:57:45.105Z,34.55
2022-09-22T06:00:15.092Z,34.85
2022-09-22T06:02:44.678Z,34.72
2022-09-22T06:05:15.294Z,34.87
2022-09-22T06:07:45.355Z,34.95
2022-09-22T06:10:13.229Z,34.93
2022-09-22T06:12:41.347Z,34.91
2022-09-22T06:15:09.807Z,35.09
2022-09-22T06:17:39.086Z,35.34
2022-09-22T06:20:08.543Z,35.21
2022-09-22T06:22:37.293Z,35.54
2022-09-22T06:25:09.075Z,35.56
2022-09-22T06:27:37.080Z,35.63
2022-09-22T06:30:05.521Z,35.79
2022-09-22T06:32:34.312Z,36.15
2022-09-22T06:35:03.543Z,36.34
2022-09-22T06:37:32.639Z,36.52
2022-09-22T06:40:00.646Z,36.81
2022-09-22T06:42:28.596Z,37.14
2022-09-22T06:44:56.541Z,37.34
2022-09-22T06:47:24.468Z,37.50
2022-09-22T06:49:52.382Z,37.51
2022-09-22T06:52:21.644Z,37.79
2022-09-22T06:54:52.575Z,37.93
2022-09-22T06:57:21.553Z,37.95
2022-09-22T06:59:49.791Z,38.04
2022-09-22T07:02:18.417Z,38.43
2022-09-22T07:04:48.260Z,38.31
2022-09-22T07:07:16.569Z,38.43
2022-09-22T07:09:46.348Z,38.77
2022-09-22T07:12:14.316Z,38.83
2022-09-22T07:14:43.913Z,38.94
2022-09-22T07:17:11.865Z,38.81
2022-09-22T07:19:39.748Z,39.48
2022-09-22T07:22:08.220Z,39.59
2022-09-22T07:24:36.068Z,39.66
2022-09-22T07:27:07.056Z,39.73
2022-09-22T07:29:34.965Z,40.04
2022-09-22T07:32:03.930Z,39.58
2022-09-22T07:34:32.200Z,39.77
2022-09-22T07:37:00.877Z,39.99
2022-09-22T07:39:28.805Z,39.73
2022-09-22T07:41:56.690Z,40.13
2022-09-22T07:44:44.582Z,40.11
2022-09-22T07:47:13.141Z,40.39
2022-09-22T07:49:41.069Z,40.85
2022-09-22T07:52:09.944Z,41.28
2022-09-22T07:54:39.821Z,41.03
2022-09-22T07:57:11.099Z,40.82
2022-09-22T07:59:41.904Z,40.35
2022-09-22T08:02:11.537Z,40.39
2022-09-22T08:04:41.174Z,40.17
2022-09-22T08:07:09.184Z,40.17
2022-09-22T08:09:37.082Z,39.94
2022-09-22T08:12:05.279Z,39.69
2022-09-22T08:14:33.182Z,39.62
2022-09-22T08:17:02.421Z,39.49
2022-09-22T08:19:33.891Z,39.67
2022-09-22T08:22:01.774Z,39.44
2022-09-22T08:24:29.804Z,39.49
2022-09-22T08:26:57.720Z,39.69
2022-09-22T08:29:25.567Z,39.92
2022-09-22T08:31:54.326Z,39.74
2022-09-22T08:34:23.870Z,39.93
2022-09-22T08:36:51.793Z,40.05
2022-09-22T08:39:19.798Z,39.88
2022-09-22T08:42:05.841Z,39.84
2022-09-22T08:44:40.363Z,39.84
2022-09-22T08:47:17.547Z,39.82
2022-09-22T08:50:08.990Z,39.83
2022-09-22T08:52:39.962Z,40.08
2022-09-22T08:55:13.324Z,40.21
2022-09-22T08:57:59.352Z,39.86
2022-09-22T09:00:31.595Z,40.01
2022-09-22T09:03:14.365Z,40.17
2022-09-22T09:06:01.411Z,39.93
2022-09-22T09:09:19.999Z,39.71
2022-09-22T09:12:02.316Z,40.19
2022-09-22T09:14:48.941Z,39.83
2022-09-22T09:17:22.009Z,39.70
2022-09-22T09:19:55.412Z,39.81
2022-09-22T09:22:28.681Z,40.21
2022-09-22T09:27:55.245Z,40.23
2022-09-22T09:30:23.565Z,39.85
2022-09-22T09:32:54.736Z,40.18
2022-09-22T09:35:26.873Z,39.83
2022-09-22T09:37:59.246Z,39.85
2022-09-22T09:40:27.723Z,39.42
2022-09-22T09:43:03.258Z,39.29
2022-09-22T09:45:38.210Z,39.58
2022-09-22T09:48:18.995Z,39.88
2022-09-22T09:50:47.008Z,39.79
2022-09-22T09:53:41.497Z,39.36
2022-09-22T09:56:24.232Z,39.59
2022-09-22T09:59:17.539Z,39.83
2022-09-22T10:01:48.156Z,39.78
2022-09-22T10:04:29.103Z,39.99
2022-09-22T10:07:10.372Z,39.68
2022-09-22T10:09:40.071Z,39.62
2022-09-22T10:12:25.767Z,39.49
2022-09-22T10:14:55.513Z,39.68
2022-09-22T10:17:27.867Z,39.98
2022-09-22T10:20:17.599Z,40.16
2022-09-22T10:22:45.784Z,40.42
2022-09-22T10:25:23.675Z,40.83
2022-09-22T10:28:02.996Z,40.69
2022-09-22T10:30:37.148Z,40.83
2022-09-22T10:33:11.718Z,41.46
2022-09-22T10:35:40.654Z,41.78
2022-09-22T10:38:15.759Z,41.37
2022-09-22T10:40:48.673Z,41.13
2022-09-22T10:43:37.143Z,40.40
2022-09-22T10:46:26.412Z,40.42
2022-09-22T10:49:03.960Z,40.51
2022-09-22T10:51:47.413Z,40.02
2022-09-22T10:54:30.123Z,39.76
2022-09-22T10:57:09.230Z,39.75
2022-09-22T10:59:53.905Z,39.52
2022-09-22T11:02:55.253Z,39.40
2022-09-22T11:05:50.692Z,39.64
2022-09-22T11:08:38.604Z,39.54
2022-09-22T11:11:37.262Z,39.32
2022-09-22T11:14:24.585Z,39.07
2022-09-22T11:17:10.431Z,38.68
2022-09-22T11:20:01.492Z,38.84
2022-09-22T11:22:45.134Z,38.87
2022-09-22T11:25:40.872Z,38.66
2022-09-22T11:28:26.089Z,38.71
2022-09-22T11:30:57.590Z,38.27
2022-09-22T11:33:48.884Z,37.87
2022-09-22T11:36:27.665Z,37.92
2022-09-22T11:39:08.748Z,37.85
2022-09-22T11:41:42.082Z,37.71
2022-09-22T11:44:37.185Z,37.43
2022-09-22T11:47:30.508Z,37.62
2022-09-22T11:50:33.997Z,37.40
2022-09-22T11:53:28.773Z,37.18
2022-09-22T11:56:10.300Z,37.12
2022-09-22T11:58:41.808Z,37.17
2022-09-22T12:01:14.836Z,36.75
2022-09-22T12:03:48.430Z,36.86
2022-09-22T12:06:20.980Z,36.55
2022-09-22T12:11:25.938Z,37.00
2022-09-22T12:13:54.893Z,36.90
2022-09-22T12:16:31.289Z,36.97
2022-09-22T12:19:08.069Z,36.71
2022-09-22T12:21:48.543Z,36.69
2022-09-22T12:24:16.649Z,36.68
2022-09-22T12:26:46.727Z,36.68
2022-09-22T12:29:26.025Z,36.38
2022-09-22T12:31:56.711Z,36.26
2022-09-22T12:34:29.497Z,36.13
2022-09-22T12:37:01.047Z,36.26
2022-09-22T12:39:32.173Z,36.29
2022-09-22T12:42:01.820Z,36.05
2022-09-22T12:44:32.995Z,35.83
2022-09-22T12:47:04.535Z,36.02
2022-09-22T12:49:34.539Z,35.68
2022-09-22T12:52:02.772Z,35.69
2022-09-22T12:54:48.668Z,35.61
2022-09-22T12:57:32.824Z,35.64
2022-09-22T13:00:14.725Z,35.63
2022-09-22T13:02:45.994Z,35.57
2022-09-22T13:05:35.506Z,35.64
2022-09-22T13:08:04.230Z,35.38
2022-09-22T13:11:00.346Z,35.20
2022-09-22T13:13:42.442Z,34.91
2022-09-22T13:16:35.730Z,35.29
2022-09-22T13:19:09.128Z,34.98
2022-09-22T13:21:40.112Z,35.06
2022-09-22T13:24:19.549Z,34.84
2022-09-22T13:26:47.470Z,35.05
2022-09-22T13:29:17.694Z,34.60
2022-09-22T13:31:47.152Z,34.94
2022-09-22T13:34:22.389Z,34.92
2022-09-22T13:36:54.012Z,34.84
2022-09-22T13:39:24.832Z,34.63
2022-09-22T13:41:56.821Z,34.84
2022-09-22T13:44:30.625Z,34.56
2022-09-22T13:47:01.964Z,34.49
2022-09-22T13:49:33.234Z,34.37
2022-09-22T13:52:07.329Z,34.07
2022-09-22T13:54:38.386Z,33.91
2022-09-22T13:57:17.082Z,33.66
2022-09-22T13:59:45.475Z,33.62
2022-09-22T14:02:14.902Z,33.50
2022-09-22T14:04:51.460Z,33.32
2022-09-22T14:07:22.779Z,33.34
2022-09-22T14:09:51.695Z,33.47
2022-09-22T14:12:20.860Z,33.34
2022-09-22T14:14:48.882Z,33.43
2022-09-22T14:17:20.706Z,33.26
2022-09-22T14:19:57.196Z,33.24
2022-09-22T14:22:28.364Z,33.33
2022-09-22T14:24:58.501Z,33.38
2022-09-22T14:27:29.085Z,33.27
2022-09-22T14:29:58.080Z,33.18
2022-09-22T14:32:31.296Z,33.14
2022-09-22T14:35:02.451Z,33.09
2022-09-22T14:37:35.274Z,33.30
2022-09-22T14:40:06.117Z,33.22
2022-09-22T14:42:34.496Z,33.19
2022-09-22T14:45:27.665Z,33.42
2022-09-22T14:48:17.928Z,33.34
2022-09-22T14:50:49.358Z,33.34
2022-09-22T14:53:23.336Z,33.35
2022-09-22T14:55:54.625Z,33.39
2022-09-22T14:58:25.285Z,33.59
2022-09-22T15:01:13.358Z,33.54
2022-09-22T15:03:43.447Z,33.42
2022-09-22T15:06:14.106Z,33.43
2022-09-22T15:08:48.901Z,33.91
2022-09-22T15:11:18.908Z,33.56
2022-09-22T15:13:50.823Z,33.53
2022-09-22T15:16:37.976Z,33.40
2022-09-22T15:19:06.474Z,33.51
2022-09-22T15:21:40.631Z,33.53
2022-09-22T15:24:11.672Z,33.67
2022-09-22T15:26:41.861Z,33.67
2022-09-22T15:29:12.655Z,33.76
2022-09-22T15:31:40.604Z,33.86
2022-09-22T15:34:10.473Z,33.91
2022-09-22T15:36:45.885Z,33.86
2022-09-22T15:39:21.579Z,33.61
2022-09-22T15:41:49.779Z,33.83
2022-09-22T15:44:17.832Z,33.68
2022-09-22T15:46:48.890Z,33.93
2022-09-22T15:49:21.060Z,33.72
2022-09-22T15:51:49.848Z,33.76
2022-09-22T15:54:20.481Z,33.79
2022-09-22T15:56:51.217Z,33.99
2022-09-22T15:59:22.362Z,34.09
2022-09-22T16:01:51.908Z,33.94
2022-09-22T16:04:20.152Z,34.28
2022-09-22T16:06:54.316Z,34.42
2022-09-22T16:09:23.745Z,34.41
2022-09-22T16:11:51.781Z,34.56
2022-09-22T16:14:19.865Z,34.55
2022-09-22T16:16:47.759Z,34.44
2022-09-22T16:19:16.150Z,34.73
2022-09-22T16:21:51.080Z,34.67
2022-09-22T16:24:19.025Z,34.92
2022-09-22T16:26:48.385Z,35.03
2022-09-22T16:29:16.555Z,35.15
2022-09-22T16:31:44.498Z,35.31
2022-09-22T16:34:12.531Z,35.17
2022-09-22T16:36:41.773Z,35.16
2022-09-22T16:39:09.891Z,35.45
2022-09-22T16:41:37.994Z,35.48
2022-09-22T16:44:07.238Z,35.37
2022-09-22T16:46:35.696Z,35.54
2022-09-22T16:49:07.338Z,35.57
2022-09-22T16:51:38.174Z,35.49
2022-09-22T16:54:07.597Z,35.82
2022-09-22T16:56:37.776Z,35.67
2022-09-22T16:59:07.772Z,35.78
2022-09-22T17:01:37.844Z,35.72
2022-09-22T17:04:07.642Z,35.84
2022-09-22T17:06:38.266Z,35.97
2022-09-22T17:09:08.005Z,35.77
2022-09-22T17:11:38.116Z,35.95
2022-09-22T17:14:12.411Z,36.16
2022-09-22T17:16:42.429Z,36.29
2022-09-22T17:19:12.367Z,36.18
2022-09-22T17:21:41.116Z,36.43
2022-09-22T17:24:09.731Z,35.97
2022-09-22T17:26:41.345Z,36.16
2022-09-22T17:29:10.977Z,36.11
2022-09-22T17:31:41.269Z,36.34
2022-09-22T17:34:09.837Z,36.30
2022-09-22T17:36:37.889Z,36.06
2022-09-22T17:39:06.304Z,36.21
2022-09-22T17:41:35.264Z,36.42
2022-09-22T17:44:03.695Z,36.35
2022-09-22T17:46:35.623Z,36.27
2022-09-22T17:49:17.463Z,36.58
2022-09-22T17:52:05.025Z,36.70
2022-09-22T17:54:52.428Z,36.61
2022-09-22T17:57:22.971Z,36.40
2022-09-22T17:59:51.456Z,36.62
2022-09-22T18:02:22.042Z,36.54
2022-09-22T18:04:50.059Z,36.63
2022-09-22T18:07:19.954Z,36.82
2022-09-22T18:09:50.845Z,36.86
2022-09-22T18:12:21.488Z,36.78
2022-09-22T18:14:52.082Z,37.04
2022-09-22T18:17:24.683Z,37.00
2022-09-22T18:19:56.113Z,37.15
2022-09-22T18:22:24.831Z,36.96
2022-09-22T18:24:55.159Z,37.19
2022-09-22T18:27:25.103Z,36.92
2022-09-22T18:29:54.138Z,37.28
2022-09-22T18:32:23.478Z,37.38
2022-09-22T18:34:53.900Z,37.30
2022-09-22T18:37:22.594Z,37.44
2022-09-22T18:39:51.361Z,37.41
2022-09-22T18:42:24.374Z,37.41
2022-09-22T18:44:56.639Z,37.61
2022-09-22T18:47:26.332Z,38.01
2022-09-22T18:49:54.300Z,37.76
2022-09-22T18:52:24.547Z,38.00
2022-09-22T18:54:54.683Z,38.13
2022-09-22T18:57:24.476Z,37.85
2022-09-22T18:59:52.556Z,37.88
2022-09-22T19:02:22.501Z,38.04
2022-09-22T19:04:52.632Z,38.03
2022-09-22T19:07:43.342Z,38.21
2022-09-22T19:10:13.375Z,38.13
2022-09-22T19:12:45.002Z,38.34
2022-09-22T19:15:18.983Z,38.49
2022-09-22T19:17:50.961Z,38.37
2022-09-22T19:20:26.194Z,38.50
2022-09-22T19:22:54.694Z,38.62
2022-09-22T19:25:24.538Z,38.62
2022-09-22T19:27:54.244Z,39.00
2022-09-22T19:30:24.893Z,39.01
2022-09-22T19:32:55.082Z,39.02
2022-09-22T19:35:24.810Z,39.10
2022-09-22T19:37:53.468Z,39.27
2022-09-22T19:40:24.309Z,39.02
2022-09-22T19:42:53.730Z,39.05
2022-09-22T19:45:23.857Z,39.38
2022-09-22T19:47:52.061Z,39.36
2022-09-22T19:50:20.140Z,39.49
2022-09-22T19:52:49.736Z,39.36
2022-09-22T19:55:20.878Z,39.61
2022-09-22T19:57:52.388Z,39.30
2022-09-22T20:00:25.955Z,39.33
2022-09-22T20:02:58.615Z,39.54
2022-09-22T20:05:30.445Z,39.26
2022-09-22T20:07:59.946Z,39.37
2022-09-22T20:10:28.213Z,39.35
2022-09-22T20:12:56.089Z,39.59
2022-09-22T20:15:24.010Z,39.65
2022-09-22T20:17:52.163Z,39.66
2022-09-22T20:20:22.665Z,39.86
2022-09-22T20:22:56.861Z,39.84
2022-09-22T20:25:28.731Z,39.86
2022-09-22T20:27:57.328Z,39.94
2022-09-22T20:30:25.482Z,40.41
2022-09-22T20:32:53.958Z,40.36
2022-09-22T20:35:22.017Z,39.93
2022-09-22T20:37:51.616Z,40.26
2022-09-22T20:40:23.110Z,40.21
2022-09-22T20:42:54.649Z,40.12
2022-09-22T20:45:24.794Z,40.02
2022-09-22T20:47:52.723Z,39.96
2022-09-22T20:50:21.216Z,40.05
2022-09-22T20:52:49.210Z,40.15
2022-09-22T20:55:17.380Z,40.15
2022-09-22T20:57:45.266Z,39.93
2022-09-22T21:00:16.329Z,39.91
2022-09-22T21:02:44.629Z,39.95
2022-09-22T21:05:12.771Z,39.79
2022-09-22T21:07:40.619Z,40.30
2022-09-22T21:10:26.689Z,40.02
2022-09-22T21:12:56.040Z,39.95
2022-09-22T21:15:25.389Z,40.20
2022-09-22T21:17:53.614Z,40.14
2022-09-22T21:20:21.635Z,39.99
2022-09-22T21:22:49.592Z,40.25
2022-09-22T21:25:17.660Z,39.99
2022-09-22T21:27:45.570Z,39.86
2022-09-22T21:30:14.677Z,40.08
2022-09-22T21:32:43.977Z,40.17
2022-09-22T21:35:16.752Z,40.21
2022-09-22T21:37:45.040Z,39.85
2022-09-22T21:40:13.299Z,40.36
2022-09-22T21:42:41.434Z,40.05
2022-09-22T21:45:10.312Z,40.21
2022-09-22T21:47:38.180Z,39.89
2022-09-22T21:50:08.740Z,39.94
2022-09-22T21:52:38.492Z,40.24
2022-09-22T21:55:07.529Z,40.23
2022-09-22T21:57:35.491Z,40.36
2022-09-22T22:00:04.789Z,40.45
2022-09-22T22:02:53.650Z,40.43
2022-09-22T22:05:22.924Z,40.22
2022-09-22T22:07:50.855Z,40.25
2022-09-22T22:10:19.233Z,40.39
2022-09-22T22:12:47.119Z,40.10
2022-09-22T22:15:15.558Z,40.05
2022-09-22T22:17:43.438Z,40.37
2022-09-22T22:20:11.382Z,40.37
2022-09-22T22:22:40.669Z,40.43
2022-09-22T22:25:12.867Z,40.56
2022-09-22T22:27:40.967Z,40.61
2022-09-22T22:30:10.379Z,40.30
2022-09-22T22:32:38.233Z,40.54
2022-09-22T22:35:07.322Z,40.43
2022-09-22T22:37:36.551Z,40.63
2022-09-22T22:40:06.705Z,40.60
2022-09-22T22:42:34.622Z,40.39
2022-09-22T22:45:02.501Z,40.50
2022-09-22T22:47:30.370Z,40.32
2022-09-22T22:49:58.225Z,40.61
2022-09-22T22:52:26.068Z,40.58
2022-09-22T22:54:54.103Z,40.64
2022-09-22T22:57:23.403Z,40.51
2022-09-22T22:59:51.257Z,40.50
2022-09-22T23:02:19.153Z,40.84
2022-09-22T23:04:47.092Z,40.39
2022-09-22T23:07:14.932Z,40.70
2022-09-22T23:09:42.796Z,40.46
2022-09-22T23:12:10.663Z,40.42
2022-09-22T23:14:39.884Z,40.41
2022-09-22T23:17:07.788Z,40.58
2022-09-22T23:19:36.011Z,40.51
2022-09-22T23:22:04.156Z,40.32
2022-09-22T23:24:32.072Z,40.63
2022-09-22T23:27:00.009Z,40.49
2022-09-22T23:29:27.865Z,40.42
2022-09-22T23:31:57.171Z,40.46
2022-09-22T23:34:25.110Z,40.36
2022-09-22T23:36:53.078Z,40.26
2022-09-22T23:39:20.928Z,40.51
2022-09-22T23:41:49.022Z,40.53
2022-09-22T23:44:16.940Z,40.49
2022-09-22T23:46:44.825Z,40.28
2022-09-22T23:49:14.052Z,40.17
2022-09-22T23:51:43.596Z,40.08
2022-09-22T23:54:13.657Z,39.82
2022-09-22T23:56:41.617Z,40.01
2022-09-22T23:59:09.696Z,39.93
